sensor_id;sensor_type;location;lat;lon;timestamp;temperature;humidity
15133;DHT22;7667;51.232;17.110;2023-04-06T00:01:45;-1.90;99.90
15133;DHT22;7667;51.232;17.110;2023-04-06T00:04:14;-1.90;99.90
15133;DHT22;7667;51.232;17.110;2023-04-06T00:06:41;-1.90;99.90
15133;DHT22;7667;51.232;17.110;2023-04-06T00:09:09;-2.00;99.90
15133;DHT22;7667;51.232;17.110;2023-04-06T00:11:36;-2.10;99.90
15133;DHT22;7667;51.232;17.110;2023-04-06T00:14:04;-2.10;99.90
15133;DHT22;7667;51.232;17.110;2023-04-06T00:16:31;-2.20;99.90
15133;DHT22;7667;51.232;17.110;2023-04-06T00:18:59;-2.50;99.90
15133;DHT22;7667;51.232;17.110;2023-04-06T00:21:26;-2.50;99.90
15133;DHT22;7667;51.232;17.110;2023-04-06T00:23:54;-2.50;99.90
15133;DHT22;7667;51.232;17.110;2023-04-06T00:26:22;-2.60;99.90
15133;DHT22;7667;51.232;17.110;2023-04-06T00:28:49;-2.70;99.90
15133;DHT22;7667;51.232;17.110;2023-04-06T00:31:19;-2.70;99.90
15133;DHT22;7667;51.232;17.110;2023-04-06T00:33:48;-2.70;99.90
15133;DHT22;7667;51.232;17.110;2023-04-06T00:36:15;-2.60;99.90
15133;DHT22;7667;51.232;17.110;2023-04-06T00:38:43;-2.60;99.90
15133;DHT22;7667;51.232;17.110;2023-04-06T00:41:11;-2.70;99.90
15133;DHT22;7667;51.232;17.110;2023-04-06T00:43:38;-2.70;99.90
15133;DHT22;7667;51.232;17.110;2023-04-06T00:46:06;-2.80;99.90
15133;DHT22;7667;51.232;17.110;2023-04-06T00:48:34;-2.70;99.90
15133;DHT22;7667;51.232;17.110;2023-04-06T00:51:01;-2.60;99.90
15133;DHT22;7667;51.232;17.110;2023-04-06T00:53:29;-2.70;99.90
15133;DHT22;7667;51.232;17.110;2023-04-06T00:55:57;-2.60;99.90
15133;DHT22;7667;51.232;17.110;2023-04-06T00:58:24;-2.50;99.90
15133;DHT22;7667;51.232;17.110;2023-04-06T01:00:52;-2.60;99.90
15133;DHT22;7667;51.232;17.110;2023-04-06T01:03:20;-2.60;99.90
15133;DHT22;7667;51.232;17.110;2023-04-06T01:05:47;-2.60;99.90
15133;DHT22;7667;51.232;17.110;2023-04-06T01:08:15;-2.70;99.90
15133;DHT22;7667;51.232;17.110;2023-04-06T01:10:43;-2.60;99.90
15133;DHT22;7667;51.232;17.110;2023-04-06T01:13:10;-2.70;99.90
15133;DHT22;7667;51.232;17.110;2023-04-06T01:15:38;-2.70;99.90
15133;DHT22;7667;51.232;17.110;2023-04-06T01:18:07;-2.50;99.90
15133;DHT22;7667;51.232;17.110;2023-04-06T01:20:37;-2.50;99.90
15133;DHT22;7667;51.232;17.110;2023-04-06T01:23:04;-2.60;99.90
15133;DHT22;7667;51.232;17.110;2023-04-06T01:25:32;-2.60;99.90
15133;DHT22;7667;51.232;17.110;2023-04-06T01:27:59;-2.60;99.90
15133;DHT22;7667;51.232;17.110;2023-04-06T01:30:27;-2.60;99.90
15133;DHT22;7667;51.232;17.110;2023-04-06T01:32:56;-2.60;99.90
15133;DHT22;7667;51.232;17.110;2023-04-06T01:35:25;-2.70;99.90
15133;DHT22;7667;51.232;17.110;2023-04-06T01:37:53;-2.80;99.90
15133;DHT22;7667;51.232;17.110;2023-04-06T01:40:21;-2.90;99.90
15133;DHT22;7667;51.232;17.110;2023-04-06T01:42:49;-3.00;99.90
15133;DHT22;7667;51.232;17.110;2023-04-06T01:45:17;-3.00;99.90
15133;DHT22;7667;51.232;17.110;2023-04-06T01:47:44;-3.10;99.90
15133;DHT22;7667;51.232;17.110;2023-04-06T01:50:12;-3.20;99.90
15133;DHT22;7667;51.232;17.110;2023-04-06T01:52:40;-3.30;99.90
15133;DHT22;7667;51.232;17.110;2023-04-06T01:55:08;-3.40;99.90
15133;DHT22;7667;51.232;17.110;2023-04-06T01:57:35;-3.50;99.90
15133;DHT22;7667;51.232;17.110;2023-04-06T02:00:03;-3.60;99.90
15133;DHT22;7667;51.232;17.110;2023-04-06T02:02:31;-3.70;99.90
15133;DHT22;7667;51.232;17.110;2023-04-06T02:04:59;-3.60;99.90
15133;DHT22;7667;51.232;17.110;2023-04-06T02:07:26;-3.50;99.90
15133;DHT22;7667;51.232;17.110;2023-04-06T02:09:54;-3.40;99.90
15133;DHT22;7667;51.232;17.110;2023-04-06T02:12:23;-3.30;99.90
15133;DHT22;7667;51.232;17.110;2023-04-06T02:14:51;-3.20;99.90
15133;DHT22;7667;51.232;17.110;2023-04-06T02:17:18;-3.20;99.90
15133;DHT22;7667;51.232;17.110;2023-04-06T02:19:46;-3.20;99.90
15133;DHT22;7667;51.232;17.110;2023-04-06T02:22:14;-3.20;99.90
15133;DHT22;7667;51.232;17.110;2023-04-06T02:24:42;-3.10;99.90
15133;DHT22;7667;51.232;17.110;2023-04-06T02:27:09;-3.00;99.90
15133;DHT22;7667;51.232;17.110;2023-04-06T02:29:37;-3.10;99.90
15133;DHT22;7667;51.232;17.110;2023-04-06T02:32:04;-3.10;99.90
15133;DHT22;7667;51.232;17.110;2023-04-06T02:34:32;-3.10;99.90
15133;DHT22;7667;51.232;17.110;2023-04-06T02:37:00;-3.00;99.90
15133;DHT22;7667;51.232;17.110;2023-04-06T02:39:27;-3.00;99.90
15133;DHT22;7667;51.232;17.110;2023-04-06T02:41:55;-3.00;99.90
15133;DHT22;7667;51.232;17.110;2023-04-06T02:44:24;-3.10;99.90
15133;DHT22;7667;51.232;17.110;2023-04-06T02:46:51;-3.10;99.90
15133;DHT22;7667;51.232;17.110;2023-04-06T02:49:19;-3.00;99.90
15133;DHT22;7667;51.232;17.110;2023-04-06T02:51:46;-3.00;99.90
15133;DHT22;7667;51.232;17.110;2023-04-06T02:54:14;-3.10;99.90
15133;DHT22;7667;51.232;17.110;2023-04-06T02:56:42;-3.20;99.90
15133;DHT22;7667;51.232;17.110;2023-04-06T02:59:09;-3.20;99.90
15133;DHT22;7667;51.232;17.110;2023-04-06T03:01:38;-3.30;99.90
15133;DHT22;7667;51.232;17.110;2023-04-06T03:04:05;-3.30;99.90
15133;DHT22;7667;51.232;17.110;2023-04-06T03:06:33;-3.30;99.90
15133;DHT22;7667;51.232;17.110;2023-04-06T03:09:00;-3.30;99.90
15133;DHT22;7667;51.232;17.110;2023-04-06T03:11:29;-3.30;99.90
15133;DHT22;7667;51.232;17.110;2023-04-06T03:13:56;-3.30;99.90
15133;DHT22;7667;51.232;17.110;2023-04-06T03:16:24;-3.30;99.90
15133;DHT22;7667;51.232;17.110;2023-04-06T03:18:52;-3.30;99.90
15133;DHT22;7667;51.232;17.110;2023-04-06T03:21:19;-3.30;99.90
15133;DHT22;7667;51.232;17.110;2023-04-06T03:23:47;-3.30;99.90
15133;DHT22;7667;51.232;17.110;2023-04-06T03:26:17;-3.30;99.90
15133;DHT22;7667;51.232;17.110;2023-04-06T03:28:44;-3.30;99.90
15133;DHT22;7667;51.232;17.110;2023-04-06T03:31:12;-3.40;99.90
15133;DHT22;7667;51.232;17.110;2023-04-06T03:33:39;-3.40;99.90
15133;DHT22;7667;51.232;17.110;2023-04-06T03:36:07;-3.40;99.90
15133;DHT22;7667;51.232;17.110;2023-04-06T03:38:35;-3.30;99.90
15133;DHT22;7667;51.232;17.110;2023-04-06T03:41:04;-3.30;99.90
15133;DHT22;7667;51.232;17.110;2023-04-06T03:43:31;-3.30;99.90
15133;DHT22;7667;51.232;17.110;2023-04-06T03:45:59;-3.40;99.90
15133;DHT22;7667;51.232;17.110;2023-04-06T03:48:27;-3.40;99.90
15133;DHT22;7667;51.232;17.110;2023-04-06T03:50:54;-3.40;99.90
15133;DHT22;7667;51.232;17.110;2023-04-06T03:53:22;-3.50;99.90
15133;DHT22;7667;51.232;17.110;2023-04-06T03:55:49;-3.60;99.90
15133;DHT22;7667;51.232;17.110;2023-04-06T03:58:17;-3.70;99.90
15133;DHT22;7667;51.232;17.110;2023-04-06T04:00:44;-3.70;99.90
15133;DHT22;7667;51.232;17.110;2023-04-06T04:03:12;-3.80;99.90
15133;DHT22;7667;51.232;17.110;2023-04-06T04:05:40;-3.70;99.90
15133;DHT22;7667;51.232;17.110;2023-04-06T04:08:07;-3.70;99.90
15133;DHT22;7667;51.232;17.110;2023-04-06T04:10:35;-3.70;99.90
15133;DHT22;7667;51.232;17.110;2023-04-06T04:13:02;-3.70;99.90
15133;DHT22;7667;51.232;17.110;2023-04-06T04:15:30;-3.80;99.90
15133;DHT22;7667;51.232;17.110;2023-04-06T04:17:57;-3.70;99.90
15133;DHT22;7667;51.232;17.110;2023-04-06T04:20:25;-3.70;99.90
15133;DHT22;7667;51.232;17.110;2023-04-06T04:22:52;-3.60;99.90
15133;DHT22;7667;51.232;17.110;2023-04-06T04:25:20;-3.60;99.90
15133;DHT22;7667;51.232;17.110;2023-04-06T04:27:47;-3.60;99.90
15133;DHT22;7667;51.232;17.110;2023-04-06T04:30:15;-3.60;99.90
15133;DHT22;7667;51.232;17.110;2023-04-06T04:32:43;-3.50;99.90
15133;DHT22;7667;51.232;17.110;2023-04-06T04:35:10;-3.50;99.90
15133;DHT22;7667;51.232;17.110;2023-04-06T04:37:41;-3.50;99.90
15133;DHT22;7667;51.232;17.110;2023-04-06T04:40:09;-3.50;99.90
15133;DHT22;7667;51.232;17.110;2023-04-06T04:42:37;-3.50;99.90
15133;DHT22;7667;51.232;17.110;2023-04-06T04:45:05;-3.40;99.90
15133;DHT22;7667;51.232;17.110;2023-04-06T04:47:33;-3.40;99.90
15133;DHT22;7667;51.232;17.110;2023-04-06T04:50:00;-3.40;99.90
15133;DHT22;7667;51.232;17.110;2023-04-06T04:52:28;-3.40;99.90
15133;DHT22;7667;51.232;17.110;2023-04-06T04:54:55;-3.40;99.90
15133;DHT22;7667;51.232;17.110;2023-04-06T04:57:23;-3.30;99.90
15133;DHT22;7667;51.232;17.110;2023-04-06T04:59:50;-3.30;99.90
15133;DHT22;7667;51.232;17.110;2023-04-06T05:02:18;-3.20;99.90
15133;DHT22;7667;51.232;17.110;2023-04-06T05:04:45;-3.00;99.90
15133;DHT22;7667;51.232;17.110;2023-04-06T05:07:13;-2.90;99.90
15133;DHT22;7667;51.232;17.110;2023-04-06T05:09:42;-2.80;99.90
15133;DHT22;7667;51.232;17.110;2023-04-06T05:12:09;-2.70;99.90
15133;DHT22;7667;51.232;17.110;2023-04-06T05:14:37;-2.70;99.90
15133;DHT22;7667;51.232;17.110;2023-04-06T05:17:05;-2.70;99.90
15133;DHT22;7667;51.232;17.110;2023-04-06T05:19:32;-2.60;99.90
15133;DHT22;7667;51.232;17.110;2023-04-06T05:22:00;-2.50;99.90
15133;DHT22;7667;51.232;17.110;2023-04-06T05:24:27;-2.40;99.90
15133;DHT22;7667;51.232;17.110;2023-04-06T05:26:55;-2.30;99.90
15133;DHT22;7667;51.232;17.110;2023-04-06T05:29:22;-2.10;99.90
15133;DHT22;7667;51.232;17.110;2023-04-06T05:31:51;-2.10;99.90
15133;DHT22;7667;51.232;17.110;2023-04-06T05:34:18;-2.00;99.90
15133;DHT22;7667;51.232;17.110;2023-04-06T05:36:46;-1.90;99.90
15133;DHT22;7667;51.232;17.110;2023-04-06T05:39:13;-1.80;99.90
15133;DHT22;7667;51.232;17.110;2023-04-06T05:41:41;-1.70;99.90
15133;DHT22;7667;51.232;17.110;2023-04-06T05:44:08;-1.70;99.90
15133;DHT22;7667;51.232;17.110;2023-04-06T05:46:36;-1.50;99.90
15133;DHT22;7667;51.232;17.110;2023-04-06T05:49:04;-1.50;99.90
15133;DHT22;7667;51.232;17.110;2023-04-06T05:51:33;-1.40;99.90
15133;DHT22;7667;51.232;17.110;2023-04-06T05:54:00;-1.30;99.90
15133;DHT22;7667;51.232;17.110;2023-04-06T05:56:28;-1.30;99.90
15133;DHT22;7667;51.232;17.110;2023-04-06T05:58:57;-1.20;99.90
15133;DHT22;7667;51.232;17.110;2023-04-06T06:01:24;-1.10;99.90
15133;DHT22;7667;51.232;17.110;2023-04-06T06:03:52;-1.10;99.90
15133;DHT22;7667;51.232;17.110;2023-04-06T06:06:19;-1.00;99.90
15133;DHT22;7667;51.232;17.110;2023-04-06T06:08:47;-1.10;99.90
15133;DHT22;7667;51.232;17.110;2023-04-06T06:11:14;-1.10;99.90
15133;DHT22;7667;51.232;17.110;2023-04-06T06:13:42;-1.10;99.90
15133;DHT22;7667;51.232;17.110;2023-04-06T06:16:09;-1.10;99.90
15133;DHT22;7667;51.232;17.110;2023-04-06T06:18:37;-1.10;99.90
15133;DHT22;7667;51.232;17.110;2023-04-06T06:21:04;-0.90;99.90
15133;DHT22;7667;51.232;17.110;2023-04-06T06:23:32;-0.90;99.90
15133;DHT22;7667;51.232;17.110;2023-04-06T06:26:00;-0.90;99.90
15133;DHT22;7667;51.232;17.110;2023-04-06T06:28:28;-0.90;99.90
15133;DHT22;7667;51.232;17.110;2023-04-06T06:30:55;-0.80;99.90
15133;DHT22;7667;51.232;17.110;2023-04-06T06:33:23;-0.70;99.90
15133;DHT22;7667;51.232;17.110;2023-04-06T06:35:50;-0.70;99.90
15133;DHT22;7667;51.232;17.110;2023-04-06T06:38:18;-0.70;99.90
15133;DHT22;7667;51.232;17.110;2023-04-06T06:40:49;-0.50;99.90
15133;DHT22;7667;51.232;17.110;2023-04-06T06:43:17;-0.50;99.90
15133;DHT22;7667;51.232;17.110;2023-04-06T06:45:44;-0.40;99.90
15133;DHT22;7667;51.232;17.110;2023-04-06T06:48:12;-0.20;99.90
15133;DHT22;7667;51.232;17.110;2023-04-06T06:50:39;-0.20;99.90
15133;DHT22;7667;51.232;17.110;2023-04-06T06:53:07;-0.10;99.90
15133;DHT22;7667;51.232;17.110;2023-04-06T06:55:34;0.10;99.90
15133;DHT22;7667;51.232;17.110;2023-04-06T06:58:02;0.20;99.90
15133;DHT22;7667;51.232;17.110;2023-04-06T07:00:30;0.20;99.90
15133;DHT22;7667;51.232;17.110;2023-04-06T07:02:57;0.40;99.90
15133;DHT22;7667;51.232;17.110;2023-04-06T07:05:25;0.50;99.90
15133;DHT22;7667;51.232;17.110;2023-04-06T07:07:55;0.70;99.90
15133;DHT22;7667;51.232;17.110;2023-04-06T07:10:23;0.70;99.90
15133;DHT22;7667;51.232;17.110;2023-04-06T07:12:50;0.70;99.90
15133;DHT22;7667;51.232;17.110;2023-04-06T07:15:18;0.80;99.90
15133;DHT22;7667;51.232;17.110;2023-04-06T07:17:45;1.00;99.90
15133;DHT22;7667;51.232;17.110;2023-04-06T07:20:13;1.10;99.90
15133;DHT22;7667;51.232;17.110;2023-04-06T07:22:42;1.20;99.90
15133;DHT22;7667;51.232;17.110;2023-04-06T07:25:11;1.30;99.90
15133;DHT22;7667;51.232;17.110;2023-04-06T07:27:39;1.40;99.90
15133;DHT22;7667;51.232;17.110;2023-04-06T07:30:07;1.50;99.90
15133;DHT22;7667;51.232;17.110;2023-04-06T07:32:35;1.60;99.90
15133;DHT22;7667;51.232;17.110;2023-04-06T07:35:03;1.60;99.90
15133;DHT22;7667;51.232;17.110;2023-04-06T07:37:31;1.70;99.90
15133;DHT22;7667;51.232;17.110;2023-04-06T07:39:58;1.70;99.90
15133;DHT22;7667;51.232;17.110;2023-04-06T07:42:26;1.80;99.90
15133;DHT22;7667;51.232;17.110;2023-04-06T07:44:53;1.90;99.90
15133;DHT22;7667;51.232;17.110;2023-04-06T07:47:20;1.90;99.90
15133;DHT22;7667;51.232;17.110;2023-04-06T07:49:50;2.00;99.90
15133;DHT22;7667;51.232;17.110;2023-04-06T07:52:17;2.10;99.90
15133;DHT22;7667;51.232;17.110;2023-04-06T07:54:45;2.20;99.90
15133;DHT22;7667;51.232;17.110;2023-04-06T07:57:12;2.20;99.90
15133;DHT22;7667;51.232;17.110;2023-04-06T07:59:40;2.30;99.90
15133;DHT22;7667;51.232;17.110;2023-04-06T08:02:07;2.50;99.90
15133;DHT22;7667;51.232;17.110;2023-04-06T08:04:35;2.50;99.90
15133;DHT22;7667;51.232;17.110;2023-04-06T08:07:03;2.50;99.90
15133;DHT22;7667;51.232;17.110;2023-04-06T08:09:30;2.70;99.90
15133;DHT22;7667;51.232;17.110;2023-04-06T08:11:58;2.80;99.90
15133;DHT22;7667;51.232;17.110;2023-04-06T08:14:26;2.80;99.90
15133;DHT22;7667;51.232;17.110;2023-04-06T08:16:53;3.00;99.90
15133;DHT22;7667;51.232;17.110;2023-04-06T08:19:21;3.10;99.90
15133;DHT22;7667;51.232;17.110;2023-04-06T08:21:49;3.10;99.90
15133;DHT22;7667;51.232;17.110;2023-04-06T08:24:18;3.10;99.90
15133;DHT22;7667;51.232;17.110;2023-04-06T08:26:45;3.20;99.90
15133;DHT22;7667;51.232;17.110;2023-04-06T08:29:13;3.50;99.90
15133;DHT22;7667;51.232;17.110;2023-04-06T08:31:40;3.80;99.90
15133;DHT22;7667;51.232;17.110;2023-04-06T08:34:08;4.10;99.90
15133;DHT22;7667;51.232;17.110;2023-04-06T08:36:39;4.40;99.90
15133;DHT22;7667;51.232;17.110;2023-04-06T08:39:07;4.40;99.90
15133;DHT22;7667;51.232;17.110;2023-04-06T08:41:35;4.40;99.90
15133;DHT22;7667;51.232;17.110;2023-04-06T08:44:02;4.50;99.90
15133;DHT22;7667;51.232;17.110;2023-04-06T08:46:30;4.60;99.90
15133;DHT22;7667;51.232;17.110;2023-04-06T08:49:01;4.70;99.90
15133;DHT22;7667;51.232;17.110;2023-04-06T08:51:30;4.60;99.90
15133;DHT22;7667;51.232;17.110;2023-04-06T08:53:59;4.50;99.90
15133;DHT22;7667;51.232;17.110;2023-04-06T08:56:28;4.50;99.90
15133;DHT22;7667;51.232;17.110;2023-04-06T08:58:56;4.50;99.90
15133;DHT22;7667;51.232;17.110;2023-04-06T09:01:26;4.60;99.90
15133;DHT22;7667;51.232;17.110;2023-04-06T09:03:56;4.80;99.90
15133;DHT22;7667;51.232;17.110;2023-04-06T09:06:26;5.00;99.90
15133;DHT22;7667;51.232;17.110;2023-04-06T09:08:54;5.00;99.90
15133;DHT22;7667;51.232;17.110;2023-04-06T09:11:24;5.20;99.90
15133;DHT22;7667;51.232;17.110;2023-04-06T09:13:53;5.40;99.90
15133;DHT22;7667;51.232;17.110;2023-04-06T09:16:22;5.20;99.90
15133;DHT22;7667;51.232;17.110;2023-04-06T09:18:50;4.80;99.90
15133;DHT22;7667;51.232;17.110;2023-04-06T09:21:19;4.60;99.90
15133;DHT22;7667;51.232;17.110;2023-04-06T09:24:01;4.60;99.90
15133;DHT22;7667;51.232;17.110;2023-04-06T09:26:29;4.80;99.90
15133;DHT22;7667;51.232;17.110;2023-04-06T09:28:58;4.70;99.90
15133;DHT22;7667;51.232;17.110;2023-04-06T09:31:30;4.60;99.90
15133;DHT22;7667;51.232;17.110;2023-04-06T09:34:00;4.50;99.90
15133;DHT22;7667;51.232;17.110;2023-04-06T09:36:35;4.70;99.90
15133;DHT22;7667;51.232;17.110;2023-04-06T09:39:07;5.00;99.90
15133;DHT22;7667;51.232;17.110;2023-04-06T09:41:35;5.30;99.90
15133;DHT22;7667;51.232;17.110;2023-04-06T09:44:10;5.60;99.90
15133;DHT22;7667;51.232;17.110;2023-04-06T09:46:40;6.10;99.90
15133;DHT22;7667;51.232;17.110;2023-04-06T09:49:30;5.90;99.40
15133;DHT22;7667;51.232;17.110;2023-04-06T09:52:03;5.70;97.60
15133;DHT22;7667;51.232;17.110;2023-04-06T09:54:32;5.50;99.20
15133;DHT22;7667;51.232;17.110;2023-04-06T10:00:07;5.60;97.40
15133;DHT22;7667;51.232;17.110;2023-04-06T10:02:58;5.70;99.90
15133;DHT22;7667;51.232;17.110;2023-04-06T10:05:50;6.50;99.90
15133;DHT22;7667;51.232;17.110;2023-04-06T10:08:22;7.00;97.70
15133;DHT22;7667;51.232;17.110;2023-04-06T10:10:52;7.40;95.80
15133;DHT22;7667;51.232;17.110;2023-04-06T10:13:20;7.00;94.30
15133;DHT22;7667;51.232;17.110;2023-04-06T10:15:48;7.10;94.90
15133;DHT22;7667;51.232;17.110;2023-04-06T10:18:16;6.70;95.50
15133;DHT22;7667;51.232;17.110;2023-04-06T10:20:51;6.50;97.10
15133;DHT22;7667;51.232;17.110;2023-04-06T10:26:19;5.70;94.30
15133;DHT22;7667;51.232;17.110;2023-04-06T10:28:50;5.80;94.20
15133;DHT22;7667;51.232;17.110;2023-04-06T10:31:25;6.00;93.80
15133;DHT22;7667;51.232;17.110;2023-04-06T10:34:01;6.50;95.00
15133;DHT22;7667;51.232;17.110;2023-04-06T10:36:33;6.80;95.60
15133;DHT22;7667;51.232;17.110;2023-04-06T10:39:04;7.00;93.40
15133;DHT22;7667;51.232;17.110;2023-04-06T10:41:37;6.50;91.70
15133;DHT22;7667;51.232;17.110;2023-04-06T10:44:23;6.20;94.20
15133;DHT22;7667;51.232;17.110;2023-04-06T10:46:56;6.20;93.40
15133;DHT22;7667;51.232;17.110;2023-04-06T10:49:25;6.20;92.10
15133;DHT22;7667;51.232;17.110;2023-04-06T10:51:54;6.40;94.10
15133;DHT22;7667;51.232;17.110;2023-04-06T10:54:24;6.50;92.90
15133;DHT22;7667;51.232;17.110;2023-04-06T10:56:53;6.30;91.20
15133;DHT22;7667;51.232;17.110;2023-04-06T10:59:21;6.20;92.30
15133;DHT22;7667;51.232;17.110;2023-04-06T11:01:49;6.30;94.40
15133;DHT22;7667;51.232;17.110;2023-04-06T11:04:19;6.70;92.60
15133;DHT22;7667;51.232;17.110;2023-04-06T11:06:49;7.00;94.00
15133;DHT22;7667;51.232;17.110;2023-04-06T11:09:30;7.10;91.00
15133;DHT22;7667;51.232;17.110;2023-04-06T11:12:02;7.00;91.60
15133;DHT22;7667;51.232;17.110;2023-04-06T11:14:30;6.80;91.90
15133;DHT22;7667;51.232;17.110;2023-04-06T11:16:58;6.70;90.70
15133;DHT22;7667;51.232;17.110;2023-04-06T11:19:25;6.90;91.60
15133;DHT22;7667;51.232;17.110;2023-04-06T11:21:53;7.20;91.40
15133;DHT22;7667;51.232;17.110;2023-04-06T11:24:22;7.70;91.10
15133;DHT22;7667;51.232;17.110;2023-04-06T11:26:53;7.80;90.60
15133;DHT22;7667;51.232;17.110;2023-04-06T11:29:26;7.30;90.70
15133;DHT22;7667;51.232;17.110;2023-04-06T11:32:03;7.30;90.60
15133;DHT22;7667;51.232;17.110;2023-04-06T11:34:39;7.20;90.60
15133;DHT22;7667;51.232;17.110;2023-04-06T11:37:09;7.30;91.60
15133;DHT22;7667;51.232;17.110;2023-04-06T11:39:50;6.90;90.60
15133;DHT22;7667;51.232;17.110;2023-04-06T11:42:27;7.00;90.00
15133;DHT22;7667;51.232;17.110;2023-04-06T11:44:57;7.40;88.50
15133;DHT22;7667;51.232;17.110;2023-04-06T11:47:36;7.70;90.00
15133;DHT22;7667;51.232;17.110;2023-04-06T11:50:14;7.80;89.10
15133;DHT22;7667;51.232;17.110;2023-04-06T11:52:42;8.00;89.80
15133;DHT22;7667;51.232;17.110;2023-04-06T11:55:19;8.20;89.10
15133;DHT22;7667;51.232;17.110;2023-04-06T11:57:46;8.60;89.90
15133;DHT22;7667;51.232;17.110;2023-04-06T12:00:14;8.90;88.00
15133;DHT22;7667;51.232;17.110;2023-04-06T12:02:45;9.10;85.90
15133;DHT22;7667;51.232;17.110;2023-04-06T12:05:14;9.00;82.80
15133;DHT22;7667;51.232;17.110;2023-04-06T12:07:42;8.90;81.50
15133;DHT22;7667;51.232;17.110;2023-04-06T12:10:10;8.80;82.50
15133;DHT22;7667;51.232;17.110;2023-04-06T12:12:37;9.20;80.50
15133;DHT22;7667;51.232;17.110;2023-04-06T12:15:05;10.00;82.30
15133;DHT22;7667;51.232;17.110;2023-04-06T12:17:33;10.30;79.60
15133;DHT22;7667;51.232;17.110;2023-04-06T12:20:01;9.70;77.00
15133;DHT22;7667;51.232;17.110;2023-04-06T12:22:39;9.40;78.00
15133;DHT22;7667;51.232;17.110;2023-04-06T12:25:07;10.20;78.00
15133;DHT22;7667;51.232;17.110;2023-04-06T12:27:35;10.00;76.50
15133;DHT22;7667;51.232;17.110;2023-04-06T12:30:03;9.40;72.70
15133;DHT22;7667;51.232;17.110;2023-04-06T12:32:31;9.20;74.00
15133;DHT22;7667;51.232;17.110;2023-04-06T12:34:58;9.60;77.80
15133;DHT22;7667;51.232;17.110;2023-04-06T12:37:27;9.70;78.20
15133;DHT22;7667;51.232;17.110;2023-04-06T12:39:54;10.00;79.50
15133;DHT22;7667;51.232;17.110;2023-04-06T12:42:22;10.60;76.50
15133;DHT22;7667;51.232;17.110;2023-04-06T12:44:49;11.70;72.00
15133;DHT22;7667;51.232;17.110;2023-04-06T12:47:17;11.20;73.00
15133;DHT22;7667;51.232;17.110;2023-04-06T12:49:45;10.10;74.10
15133;DHT22;7667;51.232;17.110;2023-04-06T12:52:12;9.60;74.10
15133;DHT22;7667;51.232;17.110;2023-04-06T12:54:41;9.70;76.20
15133;DHT22;7667;51.232;17.110;2023-04-06T12:57:09;10.60;73.30
15133;DHT22;7667;51.232;17.110;2023-04-06T12:59:37;10.90;73.50
15133;DHT22;7667;51.232;17.110;2023-04-06T13:02:04;10.50;72.00
15133;DHT22;7667;51.232;17.110;2023-04-06T13:04:32;10.80;73.20
15133;DHT22;7667;51.232;17.110;2023-04-06T13:07:00;10.50;71.60
15133;DHT22;7667;51.232;17.110;2023-04-06T13:09:27;9.30;73.00
15133;DHT22;7667;51.232;17.110;2023-04-06T13:11:55;9.30;76.50
15133;DHT22;7667;51.232;17.110;2023-04-06T13:14:22;9.20;70.90
15133;DHT22;7667;51.232;17.110;2023-04-06T13:16:50;9.70;75.00
15133;DHT22;7667;51.232;17.110;2023-04-06T13:19:18;9.70;73.10
15133;DHT22;7667;51.232;17.110;2023-04-06T13:21:45;10.00;73.20
15133;DHT22;7667;51.232;17.110;2023-04-06T13:24:14;9.90;72.40
15133;DHT22;7667;51.232;17.110;2023-04-06T13:26:43;10.40;72.20
15133;DHT22;7667;51.232;17.110;2023-04-06T13:29:11;10.10;70.20
15133;DHT22;7667;51.232;17.110;2023-04-06T13:31:38;9.80;72.30
15133;DHT22;7667;51.232;17.110;2023-04-06T13:34:06;9.60;71.20
15133;DHT22;7667;51.232;17.110;2023-04-06T13:36:33;9.80;71.70
15133;DHT22;7667;51.232;17.110;2023-04-06T13:39:01;9.60;71.70
15133;DHT22;7667;51.232;17.110;2023-04-06T13:41:29;9.60;73.00
15133;DHT22;7667;51.232;17.110;2023-04-06T13:43:57;9.60;72.30
15133;DHT22;7667;51.232;17.110;2023-04-06T13:46:25;9.40;73.90
15133;DHT22;7667;51.232;17.110;2023-04-06T13:48:54;9.50;74.50
15133;DHT22;7667;51.232;17.110;2023-04-06T13:51:22;9.40;72.90
15133;DHT22;7667;51.232;17.110;2023-04-06T13:53:50;9.00;77.00
15133;DHT22;7667;51.232;17.110;2023-04-06T13:56:19;8.40;77.40
15133;DHT22;7667;51.232;17.110;2023-04-06T13:58:47;8.20;76.80
15133;DHT22;7667;51.232;17.110;2023-04-06T14:01:14;8.00;77.30
15133;DHT22;7667;51.232;17.110;2023-04-06T14:03:42;7.60;78.20
15133;DHT22;7667;51.232;17.110;2023-04-06T14:06:13;7.50;79.10
15133;DHT22;7667;51.232;17.110;2023-04-06T14:08:56;7.50;79.90
15133;DHT22;7667;51.232;17.110;2023-04-06T14:11:24;7.70;79.80
15133;DHT22;7667;51.232;17.110;2023-04-06T14:13:51;8.00;78.90
15133;DHT22;7667;51.232;17.110;2023-04-06T14:16:23;8.50;77.20
15133;DHT22;7667;51.232;17.110;2023-04-06T14:18:51;9.20;75.00
15133;DHT22;7667;51.232;17.110;2023-04-06T14:21:19;9.40;75.10
15133;DHT22;7667;51.232;17.110;2023-04-06T14:23:47;9.70;75.70
15133;DHT22;7667;51.232;17.110;2023-04-06T14:26:14;9.80;74.10
15133;DHT22;7667;51.232;17.110;2023-04-06T14:28:42;10.30;72.60
15133;DHT22;7667;51.232;17.110;2023-04-06T14:31:11;10.30;72.10
15133;DHT22;7667;51.232;17.110;2023-04-06T14:33:40;10.50;72.80
15133;DHT22;7667;51.232;17.110;2023-04-06T14:36:09;11.30;72.10
15133;DHT22;7667;51.232;17.110;2023-04-06T14:38:37;11.70;70.90
15133;DHT22;7667;51.232;17.110;2023-04-06T14:41:07;11.10;71.20
15133;DHT22;7667;51.232;17.110;2023-04-06T14:43:36;11.00;72.30
15133;DHT22;7667;51.232;17.110;2023-04-06T14:46:03;11.30;71.40
15133;DHT22;7667;51.232;17.110;2023-04-06T14:48:31;11.50;70.10
15133;DHT22;7667;51.232;17.110;2023-04-06T14:50:58;10.90;69.10
15133;DHT22;7667;51.232;17.110;2023-04-06T14:53:26;10.70;69.90
15133;DHT22;7667;51.232;17.110;2023-04-06T14:55:55;10.30;70.00
15133;DHT22;7667;51.232;17.110;2023-04-06T14:58:23;10.50;71.70
15133;DHT22;7667;51.232;17.110;2023-04-06T15:00:59;10.40;72.10
15133;DHT22;7667;51.232;17.110;2023-04-06T15:03:28;10.20;72.50
15133;DHT22;7667;51.232;17.110;2023-04-06T15:05:56;9.80;72.00
15133;DHT22;7667;51.232;17.110;2023-04-06T15:08:24;9.80;74.40
15133;DHT22;7667;51.232;17.110;2023-04-06T15:10:52;10.30;72.50
15133;DHT22;7667;51.232;17.110;2023-04-06T15:13:21;10.70;72.70
15133;DHT22;7667;51.232;17.110;2023-04-06T15:15:50;10.20;72.40
15133;DHT22;7667;51.232;17.110;2023-04-06T15:18:19;9.90;73.10
15133;DHT22;7667;51.232;17.110;2023-04-06T15:20:47;9.80;72.90
15133;DHT22;7667;51.232;17.110;2023-04-06T15:23:14;9.60;75.10
15133;DHT22;7667;51.232;17.110;2023-04-06T15:25:42;9.60;76.00
15133;DHT22;7667;51.232;17.110;2023-04-06T15:28:09;9.90;75.50
15133;DHT22;7667;51.232;17.110;2023-04-06T15:30:38;9.90;76.00
15133;DHT22;7667;51.232;17.110;2023-04-06T15:33:07;9.90;74.90
15133;DHT22;7667;51.232;17.110;2023-04-06T15:35:35;9.70;74.60
15133;DHT22;7667;51.232;17.110;2023-04-06T15:38:08;9.60;75.00
15133;DHT22;7667;51.232;17.110;2023-04-06T15:40:54;9.20;75.40
15133;DHT22;7667;51.232;17.110;2023-04-06T15:43:22;9.10;76.50
15133;DHT22;7667;51.232;17.110;2023-04-06T15:45:49;8.90;77.00
15133;DHT22;7667;51.232;17.110;2023-04-06T15:48:17;8.70;77.60
15133;DHT22;7667;51.232;17.110;2023-04-06T15:50:45;8.50;77.50
15133;DHT22;7667;51.232;17.110;2023-04-06T15:53:13;8.70;79.30